Weather at Lilla Creek Airport

Public forecast

Using degrees Celsius for public forecast. Weather courtesy of forecast.io.

Closest aviation weather report (METAR) to Lilla Creek Airport

Closest report is Alice Springs Airport, 105.5 nm (195.5 km) N. Retrieved 2022/05/23 01:00 UTC (14 minutes ago):

YBAS 230100Z AUTO 08010KT 9999 // NCD 21/10 Q1021 RF000/0000

Closest aviation forecast (TAF) to Lilla Creek Airport

Closest forecast is Alice Springs Airport, 105.5 nm (195.5 km) N. Retrieved 2022-05-23 00:37 UTC (37 minutes ago):

TAF YBAS 222303Z 2300/2400 27005KT CAVOK FM230100 09009KT CAVOK FM231200 VRB03KT CAVOK FM232300 03010KT CAVOK